createdAt,value
2022-08-31T00:00:57.752Z,19.02
2022-08-31T00:06:34.190Z,19.20
2022-08-31T00:09:23.851Z,19.17
2022-08-31T00:12:16.793Z,19.10
2022-08-31T00:17:59.313Z,19.02
2022-08-31T00:23:31.805Z,19.04
2022-08-31T00:29:00.025Z,18.97
2022-08-31T00:34:30.618Z,19.09
2022-08-31T00:40:01.017Z,18.86
2022-08-31T00:45:51.258Z,18.89
2022-08-31T00:51:22.755Z,18.90
2022-08-31T00:54:12.533Z,18.82
2022-08-31T00:57:01.507Z,18.85
2022-08-31T00:59:55.672Z,18.83
2022-08-31T01:05:33.889Z,19.06
2022-08-31T01:11:21.412Z,18.93
2022-08-31T01:14:12.483Z,18.80
2022-08-31T01:19:45.503Z,18.82
2022-08-31T01:25:33.467Z,18.85
2022-08-31T01:31:06.890Z,19.09
2022-08-31T01:36:44.470Z,19.13
2022-08-31T01:39:33.817Z,19.14
2022-08-31T01:45:12.865Z,19.08
2022-08-31T01:48:02.475Z,19.05
2022-08-31T01:50:50.974Z,18.85
2022-08-31T01:53:39.351Z,18.95
2022-08-31T01:56:32.477Z,18.98
2022-08-31T02:02:08.590Z,18.97
2022-08-31T02:07:43.801Z,19.04
2022-08-31T02:10:34.200Z,18.95
2022-08-31T02:13:22.448Z,18.97
2022-08-31T02:18:58.555Z,18.74
2022-08-31T02:24:34.871Z,18.82
2022-08-31T02:30:16.913Z,18.61
2022-08-31T02:35:53.603Z,18.72
2022-08-31T02:41:27.185Z,18.62
2022-08-31T02:47:06.328Z,18.66
2022-08-31T02:52:32.254Z,18.70
2022-08-31T02:58:11.378Z,18.66
2022-08-31T03:01:01.796Z,18.61
2022-08-31T03:06:37.261Z,18.77
2022-08-31T03:12:12.982Z,18.74
2022-08-31T03:17:52.258Z,18.75
2022-08-31T03:23:21.976Z,18.59
2022-08-31T03:26:18.312Z,18.58
2022-08-31T03:35:03.977Z,18.78
2022-08-31T03:40:40.661Z,18.92
2022-08-31T03:46:14.339Z,18.67
2022-08-31T03:51:51.856Z,18.79
2022-08-31T03:54:41.135Z,18.65
2022-08-31T04:00:12.594Z,18.69
2022-08-31T04:05:49.728Z,18.46
2022-08-31T04:11:44.218Z,18.43
2022-08-31T04:17:32.766Z,18.48
2022-08-31T04:23:03.679Z,18.38
2022-08-31T04:25:55.103Z,18.43
2022-08-31T04:28:44.252Z,18.43
2022-08-31T04:34:16.437Z,18.24
2022-08-31T04:40:13.184Z,17.94
2022-08-31T04:43:01.548Z,17.99
2022-08-31T04:48:38.180Z,18.01
2022-08-31T04:51:28.098Z,18.14
2022-08-31T04:57:03.739Z,18.05
2022-08-31T04:59:52.266Z,18.08
2022-08-31T05:02:40.829Z,18.17
2022-08-31T05:08:17.084Z,17.90
2022-08-31T05:13:59.837Z,17.78
2022-08-31T05:19:39.123Z,17.47
2022-08-31T05:25:15.539Z,17.34
2022-08-31T05:28:05.271Z,17.34
2022-08-31T05:30:53.387Z,17.39
2022-08-31T05:33:43.611Z,17.27
2022-08-31T05:36:32.234Z,17.45
2022-08-31T05:39:20.554Z,17.62
2022-08-31T05:42:09.393Z,17.54
2022-08-31T05:44:57.871Z,17.60
2022-08-31T05:47:46.353Z,17.58
2022-08-31T05:50:35.170Z,17.60
2022-08-31T05:53:26.975Z,17.59
2022-08-31T05:59:04.844Z,17.75
2022-08-31T06:01:53.409Z,17.75
2022-08-31T06:07:35.572Z,17.78
2022-08-31T06:13:16.970Z,17.84
2022-08-31T06:18:49.246Z,17.85
2022-08-31T06:24:25.298Z,17.82
2022-08-31T06:29:53.143Z,17.39
2022-08-31T06:38:07.875Z,17.28
2022-08-31T06:43:41.971Z,17.38
2022-08-31T06:49:19.046Z,17.35
2022-08-31T06:54:52.158Z,17.54
2022-08-31T07:00:22.497Z,17.41
2022-08-31T07:03:23.515Z,17.39
2022-08-31T07:06:15.212Z,17.40
2022-08-31T07:09:05.230Z,17.42
2022-08-31T07:14:39.994Z,17.00
2022-08-31T07:17:29.279Z,16.89
2022-08-31T07:20:17.436Z,16.94
2022-08-31T07:25:47.955Z,16.81
2022-08-31T07:28:38.465Z,16.82
2022-08-31T07:31:30.880Z,16.78
2022-08-31T07:37:40.099Z,16.92
2022-08-31T07:43:11.495Z,16.79
2022-08-31T07:48:48.412Z,16.84
2022-08-31T07:54:22.905Z,16.66
2022-08-31T07:57:15.447Z,16.65
2022-08-31T08:02:45.540Z,16.68
2022-08-31T08:08:26.846Z,16.49
2022-08-31T08:14:05.323Z,16.47
2022-08-31T08:19:38.891Z,16.70
2022-08-31T08:25:14.279Z,17.00
2022-08-31T08:30:46.806Z,17.17
2022-08-31T08:36:25.423Z,17.70
2022-08-31T08:39:14.230Z,17.80
2022-08-31T08:42:04.640Z,17.81
2022-08-31T08:47:47.424Z,17.88
2022-08-31T08:50:36.807Z,17.84
2022-08-31T08:53:27.425Z,17.98
2022-08-31T08:58:58.749Z,17.70
2022-08-31T09:04:35.642Z,17.86
2022-08-31T09:10:20.612Z,18.14
2022-08-31T09:16:04.679Z,17.98
2022-08-31T09:21:41.290Z,18.07
2022-08-31T09:27:21.902Z,18.04
2022-08-31T09:33:00.307Z,18.13
2022-08-31T09:38:32.819Z,18.00
2022-08-31T09:44:32.044Z,18.16
2022-08-31T09:47:44.967Z,17.85
2022-08-31T09:53:42.214Z,18.11
2022-08-31T09:59:18.702Z,18.21
2022-08-31T10:07:49.333Z,18.60
2022-08-31T10:10:40.435Z,18.77
2022-08-31T10:16:23.495Z,19.32
2022-08-31T10:22:02.574Z,19.80
2022-08-31T10:24:58.337Z,19.88
2022-08-31T10:30:40.029Z,20.02
2022-08-31T10:36:09.993Z,19.70
2022-08-31T10:38:59.149Z,19.48
2022-08-31T10:41:49.330Z,19.42
2022-08-31T10:47:33.259Z,19.28
2022-08-31T10:53:03.049Z,19.19
2022-08-31T10:59:02.457Z,19.57
2022-08-31T11:04:52.138Z,19.57
2022-08-31T11:10:32.102Z,19.97
2022-08-31T11:13:39.145Z,20.11
2022-08-31T11:16:36.271Z,20.18
2022-08-31T11:23:07.598Z,19.92
2022-08-31T11:28:54.701Z,20.68
2022-08-31T11:31:45.474Z,21.08
2022-08-31T11:37:13.850Z,22.23
2022-08-31T11:40:04.553Z,22.19
2022-08-31T11:45:38.793Z,21.93
2022-08-31T11:51:41.969Z,21.71
2022-08-31T11:55:01.147Z,21.75
2022-08-31T11:58:11.532Z,21.62
2022-08-31T12:01:06.488Z,21.70
2022-08-31T12:03:58.419Z,21.58
2022-08-31T12:07:04.729Z,21.72
2022-08-31T12:13:38.337Z,21.25
2022-08-31T12:20:05.653Z,21.28
2022-08-31T12:23:38.769Z,21.23
2022-08-31T12:29:25.931Z,21.65
2022-08-31T12:35:23.769Z,22.10
2022-08-31T12:43:38.673Z,22.02
2022-08-31T12:49:32.935Z,21.99
2022-08-31T12:55:22.061Z,21.80
2022-08-31T12:58:30.866Z,21.88
2022-08-31T13:07:17.622Z,22.85
2022-08-31T13:10:12.004Z,22.14
2022-08-31T13:15:46.106Z,21.65
2022-08-31T13:21:22.609Z,21.44
2022-08-31T13:24:13.696Z,21.72
2022-08-31T13:27:08.005Z,22.06
2022-08-31T13:32:59.710Z,23.00
2022-08-31T13:38:32.309Z,22.34
2022-08-31T13:44:09.693Z,21.73
2022-08-31T13:55:05.015Z,20.88
2022-08-31T14:00:44.391Z,20.92
2022-08-31T14:06:27.085Z,20.51
2022-08-31T14:09:18.114Z,20.53
2022-08-31T14:14:46.672Z,20.72
2022-08-31T14:17:35.476Z,21.01
2022-08-31T14:26:27.155Z,21.77
2022-08-31T14:29:19.752Z,21.88
2022-08-31T14:34:48.782Z,21.33
2022-08-31T14:37:37.986Z,21.52
2022-08-31T14:40:25.930Z,21.63
2022-08-31T14:46:21.306Z,21.60
2022-08-31T14:49:10.819Z,21.52
2022-08-31T14:52:00.651Z,21.66
2022-08-31T14:57:30.465Z,21.16
2022-08-31T15:03:02.460Z,21.29
2022-08-31T15:08:38.352Z,21.33
2022-08-31T15:14:06.176Z,21.26
2022-08-31T15:19:45.447Z,20.86
2022-08-31T15:22:35.241Z,20.77
2022-08-31T15:25:25.185Z,20.91
2022-08-31T15:31:01.902Z,21.31
2022-08-31T15:33:54.804Z,21.49
2022-08-31T15:39:40.899Z,21.51
2022-08-31T15:42:31.230Z,21.41
2022-08-31T15:54:48.334Z,21.30
2022-08-31T15:57:37.261Z,21.31
2022-08-31T16:00:26.323Z,21.24
2022-08-31T16:03:15.461Z,21.38
2022-08-31T16:08:53.571Z,21.20
2022-08-31T16:14:24.811Z,21.04
2022-08-31T16:19:56.634Z,21.05
2022-08-31T16:25:49.463Z,20.76
2022-08-31T16:31:18.598Z,20.79
2022-08-31T16:34:10.199Z,20.64
2022-08-31T16:36:59.860Z,20.61
2022-08-31T16:39:48.427Z,20.59
2022-08-31T16:42:36.876Z,20.60
2022-08-31T16:48:25.576Z,20.73
2022-08-31T16:51:16.073Z,20.75
2022-08-31T16:54:07.211Z,20.68
2022-08-31T16:56:57.725Z,20.47
2022-08-31T17:02:36.740Z,20.38
2022-08-31T17:08:07.974Z,20.32
2022-08-31T17:13:37.041Z,20.01
2022-08-31T17:19:18.370Z,19.95
2022-08-31T17:22:11.701Z,19.81
2022-08-31T17:27:58.709Z,19.80
2022-08-31T17:33:27.137Z,19.61
2022-08-31T17:39:02.054Z,19.56
2022-08-31T17:44:32.526Z,19.57
2022-08-31T17:47:21.562Z,19.47
2022-08-31T17:52:48.287Z,19.30
2022-08-31T17:58:20.798Z,19.27
2022-08-31T18:03:52.149Z,19.28
2022-08-31T18:09:53.897Z,19.12
2022-08-31T18:15:31.431Z,19.07
2022-08-31T18:21:09.344Z,18.92
2022-08-31T18:23:57.966Z,19.03
2022-08-31T18:29:26.736Z,19.00
2022-08-31T18:32:15.625Z,19.03
2022-08-31T18:37:45.508Z,19.12
2022-08-31T18:43:42.519Z,19.09
2022-08-31T18:46:30.763Z,18.98
2022-08-31T18:49:21.834Z,18.94
2022-08-31T18:54:59.836Z,18.87
2022-08-31T19:03:27.496Z,19.00
2022-08-31T19:06:21.418Z,18.87
2022-08-31T19:11:55.761Z,18.90
2022-08-31T19:14:45.240Z,18.74
2022-08-31T19:20:13.899Z,18.95
2022-08-31T19:23:02.742Z,18.80
2022-08-31T19:28:52.112Z,18.66
2022-08-31T19:34:28.621Z,18.71
2022-08-31T19:37:17.055Z,18.64
2022-08-31T19:40:07.702Z,18.68
2022-08-31T19:45:45.381Z,18.63
2022-08-31T19:53:55.156Z,18.53
2022-08-31T19:59:48.807Z,18.48
2022-08-31T20:02:40.756Z,18.20
2022-08-31T20:05:29.165Z,18.32
2022-08-31T20:11:01.864Z,18.40
2022-08-31T20:16:34.592Z,18.36
2022-08-31T20:19:25.371Z,18.20
2022-08-31T20:22:13.925Z,18.24
2022-08-31T20:27:44.061Z,18.18
2022-08-31T20:30:36.949Z,17.99
2022-08-31T20:36:20.078Z,17.93
2022-08-31T20:41:59.087Z,17.89
2022-08-31T20:48:04.031Z,17.68
2022-08-31T20:53:42.374Z,17.49
2022-08-31T20:56:24.800Z,17.44
2022-08-31T20:59:16.063Z,17.33
2022-08-31T21:04:56.852Z,17.41
2022-08-31T21:10:38.280Z,17.28
2022-08-31T21:16:19.586Z,17.15
2022-08-31T21:21:56.051Z,17.28
2022-08-31T21:24:44.307Z,17.27
2022-08-31T21:30:21.456Z,17.28
2022-08-31T21:33:10.818Z,17.22
2022-08-31T21:36:11.271Z,17.21
2022-08-31T21:41:47.272Z,17.20
2022-08-31T21:44:35.828Z,17.17
2022-08-31T21:47:28.477Z,17.16
2022-08-31T21:50:17.042Z,17.09
2022-08-31T21:53:07.446Z,17.09
2022-08-31T21:58:41.209Z,17.09
2022-08-31T22:01:33.313Z,16.97
2022-08-31T22:07:21.442Z,16.89
2022-08-31T22:10:12.067Z,16.83
2022-08-31T22:15:43.985Z,16.82
2022-08-31T22:19:00.295Z,16.84
2022-08-31T22:21:25.512Z,16.74
2022-08-31T22:27:02.637Z,16.78
2022-08-31T22:32:35.072Z,16.73
2022-08-31T22:38:10.530Z,16.64
2022-08-31T22:43:43.239Z,16.53
2022-08-31T22:49:21.613Z,16.56
2022-08-31T22:52:14.040Z,16.54
2022-08-31T22:55:00.503Z,16.51
2022-08-31T23:00:29.072Z,16.51
2022-08-31T23:03:20.228Z,16.43
2022-08-31T23:06:10.817Z,16.42
2022-08-31T23:09:00.059Z,16.36
2022-08-31T23:14:38.883Z,16.48
2022-08-31T23:23:45.458Z,16.23
2022-08-31T23:29:22.194Z,16.30
2022-08-31T23:34:59.128Z,16.25
2022-08-31T23:40:36.570Z,16.22
2022-08-31T23:43:26.711Z,16.28
2022-08-31T23:49:03.109Z,16.27
2022-08-31T23:51:51.763Z,16.36
2022-08-31T23:54:40.134Z,16.35
2022-08-31T23:57:33.264Z,16.42
